INFORMACIÓN METAR y TAF
METAR FOR LEVC
ADDS - METARS form results

(2151 UTC 17 January 2020)
Data provider http://aviationweather.gov/metar/data/
 
METAR text: LEVC 172130Z 27005KT CAVOK 10/04 Q1031 NOSIG
Conditions at: LEVC (VALENCIA (CIV/MI, ES) observed 2130 UTC 17 January 2020
Temperature: 10.0°C (50°F)
Dewpoint: 4.0°C (39°F) [RH = 66%]
Pressure (altimeter): 30.44 inches Hg (1031.0 mb)
Winds: from the W (270 degrees) at 6 MPH (5 knots; 2.6 m/s)
Visibility: 6 or more miles (10+ km)
Ceiling: ceiling and visibility are OK
Clouds: unknown
Weather: no significant weather observed at this time

METAR text: LEVC 172100Z 33004KT 290V350 CAVOK 11/04 Q1030 NOSIG
Conditions at: LEVC (VALENCIA (CIV/MI, ES) observed 2100 UTC 17 January 2020
Temperature: 11.0°C (52°F)
Dewpoint: 4.0°C (39°F) [RH = 62%]
Pressure (altimeter): 30.41 inches Hg (1030.0 mb)
Winds: from the NNW (330 degrees) at 5 MPH (4 knots; 2.1 m/s)
Visibility: 6 or more miles (10+ km)
Ceiling: ceiling and visibility are OK
Clouds: unknown
Weather: no significant weather observed at this time

Forecast for: LEVC (VALENCIA (CIV/MI, ES)
Text: TAF LEVC 171700Z 1718/1818 26004KT 9999 FEW040 TX16/1813Z TN05/1806Z
Forecast period: 1800 UTC 17 January 2020 to 1800 UTC 18 January 2020
Forecast type: FROM: standard forecast or significant change
Winds: from the W (260 degrees) at 5 MPH (4 knots; 2.1 m/s)
Visibility: 6 or more miles 10+ km)
Ceiling: at least 12,000 feet AGL
Clouds: few clouds at 4000 feet AGL
Weather: no significant weather forecast for this period
Text: TEMPO 1722/1807 VRB03KT
Forecast period: 2200 UTC 17 January 2020 to 0700 UTC 18 January 2020
Forecast type: TEMPORARY: The following changes expected for less than half the time period
Winds: variable direction winds at 3 MPH (3 knots; 1.5 m/s)
Visibility: missing
Ceiling: unknown
Clouds: missing
Weather: no significant weather forecast for this period

MAPA DE AEROPUERTO

INFORMACIÓN DE PISTA
Pista 04 Longitud 5394 ft Ancho 148 ft
Elevación 205 ft Umbral desplazado 0 ft Rumbo de pista 38
Pista 22 Longitud 5394 ft Ancho 148 ft
Elevación 188 ft Umbral desplazado 0 ft Rumbo de pista 218
Pista 12 Longitud 8858 ft Ancho 148 ft
Elevación 225 ft Umbral desplazado 0 ft Rumbo de pista 116
Pista 30 Longitud 8858 ft Ancho 148 ft
Elevación 172 ft Umbral desplazado 0 ft Rumbo de pista 296

FRECUANCIAS DEL AEROPUERTO
Tipo APP Nombre APP Frecuencia 120.1 MHZ
Tipo ATIS Nombre ATIS Frecuencia 121.075 MHZ
Tipo GND Nombre GND Frecuencia 121.7 MHZ
Tipo TWR Nombre TWR Frecuencia 118.55 MHZ

RADIO AYUDAS DEL AEROPUERTO
Tipo NDB Nombre Valencia Frecuencia 400 KHZ
Tipo NDB Nombre Valencia Frecuencia 340 KHZ
Tipo NDB Nombre Sagunto Frecuencia 356 KHZ
Tipo VOR-DME Nombre Valencia Frecuencia 116100 KHZ